createdAt,value
2018-10-09T00:00:14.660Z,120.40
2018-10-09T00:02:43.480Z,122.73
2018-10-09T00:05:12.261Z,128.30
2018-10-09T00:07:41.031Z,141.30
2018-10-09T00:10:09.908Z,139.70
2018-10-09T00:12:38.808Z,128.40
2018-10-09T00:15:07.837Z,130.90
2018-10-09T00:17:36.672Z,134.00
2018-10-09T00:20:06.115Z,133.83
2018-10-09T00:22:34.896Z,145.83
2018-10-09T00:25:03.714Z,138.80
2018-10-09T00:27:32.528Z,131.83
2018-10-09T00:30:01.326Z,131.37
2018-10-09T00:32:30.139Z,134.80
2018-10-09T00:34:58.968Z,142.30
2018-10-09T00:37:27.761Z,145.37
2018-10-09T00:39:56.596Z,138.67
2018-10-09T00:42:25.452Z,137.37
2018-10-09T00:44:54.267Z,136.40
2018-10-09T00:47:23.096Z,134.60
2018-10-09T00:49:51.969Z,138.47
2018-10-09T00:52:20.897Z,181.20
2018-10-09T00:54:49.825Z,143.60
2018-10-09T00:57:18.800Z,151.30
2018-10-09T00:59:47.607Z,158.63
2018-10-09T01:02:16.424Z,143.77
2018-10-09T01:04:45.257Z,133.73
2018-10-09T01:07:14.046Z,139.07
2018-10-09T01:09:42.819Z,147.70
2018-10-09T01:12:11.588Z,156.30
2018-10-09T01:14:40.420Z,194.13
2018-10-09T01:17:10.004Z,201.33
2018-10-09T01:19:38.848Z,176.07
2018-10-09T01:22:08.301Z,192.20
2018-10-09T01:24:37.156Z,203.03
2018-10-09T01:27:05.847Z,229.27
2018-10-09T01:29:34.865Z,224.40
2018-10-09T01:32:03.719Z,390.30
2018-10-09T01:34:32.543Z,281.97
2018-10-09T01:37:01.361Z,274.97
2018-10-09T01:39:30.061Z,260.20
2018-10-09T01:41:58.833Z,290.57
2018-10-09T01:44:27.604Z,451.27
2018-10-09T01:46:56.401Z,295.23
2018-10-09T01:49:25.157Z,431.73
2018-10-09T01:51:54.020Z,278.37
2018-10-09T01:54:22.809Z,323.17
2018-10-09T01:56:51.509Z,248.80
2018-10-09T01:59:20.298Z,233.53
2018-10-09T02:01:49.125Z,219.87
2018-10-09T02:04:17.898Z,207.20
2018-10-09T02:06:46.775Z,205.77
2018-10-09T02:09:15.535Z,181.00
2018-10-09T02:11:44.375Z,176.07
2018-10-09T02:14:13.133Z,167.53
2018-10-09T02:16:41.893Z,166.40
2018-10-09T02:19:10.903Z,163.23
2018-10-09T02:21:39.720Z,169.57
2018-10-09T02:24:08.500Z,160.77
2018-10-09T02:26:37.302Z,155.70
2018-10-09T02:29:06.203Z,148.83
2018-10-09T02:31:34.921Z,149.13
2018-10-09T02:34:03.720Z,137.57
2018-10-09T02:36:32.539Z,137.80
2018-10-09T02:39:01.322Z,129.23
2018-10-09T02:41:30.097Z,131.43
2018-10-09T02:43:58.853Z,132.73
2018-10-09T02:46:27.633Z,143.73
2018-10-09T02:48:56.364Z,125.80
2018-10-09T02:51:25.149Z,124.40
2018-10-09T02:53:53.888Z,115.60
2018-10-09T02:56:22.656Z,115.37
2018-10-09T02:58:51.467Z,115.90
2018-10-09T03:01:20.184Z,114.97
2018-10-09T03:03:48.989Z,112.60
2018-10-09T03:06:17.759Z,105.87
2018-10-09T03:08:46.508Z,107.73
2018-10-09T03:11:15.263Z,109.77
2018-10-09T03:13:44.106Z,112.23
2018-10-09T03:16:12.800Z,102.90
2018-10-09T03:18:41.581Z,111.07
2018-10-09T03:21:10.316Z,103.73
2018-10-09T03:23:39.237Z,114.70
2018-10-09T03:26:08.234Z,113.00
2018-10-09T03:28:37.005Z,114.07
2018-10-09T03:31:05.883Z,113.97
2018-10-09T03:33:34.671Z,115.67
2018-10-09T03:36:03.592Z,120.83
2018-10-09T03:38:32.326Z,105.97
2018-10-09T03:41:01.344Z,121.47
2018-10-09T03:43:30.065Z,114.07
2018-10-09T03:45:58.830Z,113.00
2018-10-09T03:48:27.672Z,111.23
2018-10-09T03:50:56.408Z,110.23
2018-10-09T03:53:25.431Z,114.03
2018-10-09T03:55:54.180Z,119.30
2018-10-09T03:58:22.967Z,113.17
2018-10-09T04:00:51.740Z,113.53
2018-10-09T04:03:20.502Z,107.50
2018-10-09T04:05:49.221Z,113.47
2018-10-09T04:08:18.223Z,108.07
2018-10-09T04:10:46.953Z,97.10
2018-10-09T04:13:15.679Z,101.70
2018-10-09T04:15:44.532Z,100.97
2018-10-09T04:18:13.328Z,99.40
2018-10-09T04:20:42.076Z,100.40
2018-10-09T04:23:10.836Z,98.10
2018-10-09T04:25:39.608Z,99.03
2018-10-09T04:28:08.389Z,101.60
2018-10-09T04:30:37.136Z,101.03
2018-10-09T04:33:06.056Z,111.47
2018-10-09T04:35:34.754Z,103.90
2018-10-09T04:38:03.845Z,99.47
2018-10-09T04:40:32.605Z,97.70
2018-10-09T04:43:01.566Z,100.63
2018-10-09T04:45:30.641Z,99.37
2018-10-09T04:48:00.714Z,98.10
2018-10-09T04:50:29.861Z,93.63
2018-10-09T04:52:59.100Z,94.97
2018-10-09T04:55:27.909Z,100.20
2018-10-09T04:57:56.769Z,99.23
2018-10-09T05:00:25.654Z,98.57
2018-10-09T05:02:54.476Z,96.83
2018-10-09T05:05:23.393Z,97.63
2018-10-09T05:07:52.218Z,102.23
2018-10-09T05:10:21.027Z,95.47
2018-10-09T05:12:49.809Z,102.47
2018-10-09T05:15:18.665Z,94.07
2018-10-09T05:17:47.413Z,88.70
2018-10-09T05:20:16.242Z,99.50
2018-10-09T05:22:45.060Z,91.90
2018-10-09T05:25:13.874Z,96.23
2018-10-09T05:27:42.654Z,99.30
2018-10-09T05:30:11.431Z,98.50
2018-10-09T05:32:40.267Z,100.40
2018-10-09T05:35:09.069Z,103.67
2018-10-09T05:37:37.960Z,94.90
2018-10-09T05:40:06.805Z,103.47
2018-10-09T05:42:35.698Z,98.13
2018-10-09T05:45:04.656Z,95.63
2018-10-09T05:47:33.444Z,101.97
2018-10-09T05:50:02.228Z,93.83
2018-10-09T05:52:31.016Z,94.00
2018-10-09T05:54:59.825Z,92.20
2018-10-09T05:57:28.539Z,101.47
2018-10-09T05:59:57.345Z,90.90
2018-10-09T06:02:26.181Z,90.90
2018-10-09T06:04:54.961Z,99.40
2018-10-09T06:07:24.277Z,105.37
2018-10-09T06:09:53.056Z,107.20
2018-10-09T06:12:21.793Z,111.27
2018-10-09T06:14:50.562Z,116.43
2018-10-09T06:17:19.305Z,111.53
2018-10-09T06:19:48.057Z,114.07
2018-10-09T06:22:16.897Z,120.60
2018-10-09T06:24:45.639Z,114.27
2018-10-09T06:27:14.377Z,116.97
2018-10-09T06:29:43.209Z,110.47
2018-10-09T06:32:11.980Z,115.30
2018-10-09T06:34:40.775Z,116.10
2018-10-09T06:37:09.589Z,118.27
2018-10-09T06:39:38.280Z,108.13
2018-10-09T06:42:07.122Z,113.63
2018-10-09T06:44:35.888Z,115.27
2018-10-09T06:47:04.608Z,109.90
2018-10-09T06:49:33.334Z,110.90
2018-10-09T06:52:02.548Z,117.63
2018-10-09T06:54:31.485Z,126.30
2018-10-09T06:57:00.283Z,118.87
2018-10-09T06:59:29.052Z,117.53
2018-10-09T07:01:57.802Z,115.47
2018-10-09T07:04:26.551Z,114.07
2018-10-09T07:06:55.391Z,117.40
2018-10-09T07:09:24.195Z,97.93
2018-10-09T07:11:52.965Z,92.90
2018-10-09T07:14:21.973Z,97.07
2018-10-09T07:16:51.042Z,103.33
2018-10-09T07:19:19.809Z,94.70
2018-10-09T07:21:48.597Z,90.00
2018-10-09T07:24:17.725Z,94.83
2018-10-09T07:26:46.484Z,94.50
2018-10-09T07:29:15.267Z,94.17
2018-10-09T07:31:44.029Z,97.13
2018-10-09T07:34:12.748Z,90.60
2018-10-09T07:36:41.764Z,86.83
2018-10-09T07:39:12.470Z,86.83
2018-10-09T07:41:41.449Z,98.70
2018-10-09T07:44:10.214Z,86.10
2018-10-09T07:46:38.966Z,92.43
2018-10-09T07:49:07.737Z,90.37
2018-10-09T07:51:36.455Z,93.53
2018-10-09T07:54:05.246Z,93.17
2018-10-09T07:56:34.070Z,91.37
2018-10-09T07:59:03.285Z,84.03
2018-10-09T08:01:32.020Z,98.17
2018-10-09T08:04:00.829Z,94.27
2018-10-09T08:06:29.575Z,88.67
2018-10-09T08:08:58.595Z,84.30
2018-10-09T08:11:27.330Z,83.23
2018-10-09T08:13:56.075Z,83.13
2018-10-09T08:16:25.274Z,83.80
2018-10-09T08:18:53.924Z,81.97
2018-10-09T08:21:22.688Z,77.63
2018-10-09T08:23:51.572Z,74.00
2018-10-09T08:26:20.429Z,74.57
2018-10-09T08:28:49.178Z,84.47
2018-10-09T08:31:17.981Z,86.30
2018-10-09T08:33:46.692Z,81.20
2018-10-09T08:36:15.429Z,80.50
2018-10-09T08:38:45.194Z,86.00
2018-10-09T08:41:13.987Z,78.13
2018-10-09T08:43:42.716Z,84.83
2018-10-09T08:46:11.520Z,82.77
2018-10-09T08:48:41.202Z,82.40
2018-10-09T08:51:10.014Z,77.07
2018-10-09T08:53:38.847Z,84.67
2018-10-09T08:56:07.777Z,83.90
2018-10-09T08:58:37.806Z,76.53
2018-10-09T09:01:06.628Z,74.10
2018-10-09T09:03:35.417Z,88.83
2018-10-09T09:06:04.178Z,77.87
2018-10-09T09:08:32.975Z,74.23
2018-10-09T09:11:01.732Z,73.17
2018-10-09T09:13:30.578Z,73.43
2018-10-09T09:15:59.323Z,75.00
2018-10-09T09:18:28.198Z,68.03
2018-10-09T09:20:56.965Z,71.73
2018-10-09T09:23:25.764Z,65.37
2018-10-09T09:25:54.557Z,68.10
2018-10-09T09:28:23.321Z,60.67
2018-10-09T09:30:52.138Z,64.93
2018-10-09T09:33:21.103Z,61.80
2018-10-09T09:35:49.881Z,68.73
2018-10-09T09:38:18.644Z,64.83
2018-10-09T09:40:48.058Z,66.80
2018-10-09T09:43:17.006Z,61.00
2018-10-09T09:45:45.830Z,66.47
2018-10-09T09:48:14.581Z,55.70
2018-10-09T09:50:43.313Z,48.43
2018-10-09T09:53:12.107Z,53.30
2018-10-09T09:55:41.138Z,42.13
2018-10-09T09:58:10.042Z,42.90
2018-10-09T10:00:43.917Z,50.27
2018-10-09T10:03:12.656Z,51.47
2018-10-09T10:05:41.457Z,46.30
2018-10-09T10:08:10.342Z,51.30
2018-10-09T10:10:39.069Z,52.80
2018-10-09T10:13:07.856Z,48.53
2018-10-09T10:15:36.673Z,49.53
2018-10-09T10:18:05.514Z,50.67
2018-10-09T10:20:34.278Z,54.00
2018-10-09T10:23:03.159Z,48.37
2018-10-09T10:25:32.030Z,52.30
2018-10-09T10:28:01.809Z,51.90
2018-10-09T10:30:30.597Z,54.43
2018-10-09T10:32:59.444Z,55.10
2018-10-09T10:35:28.272Z,53.70
2018-10-09T10:37:57.059Z,57.37
2018-10-09T10:40:25.821Z,66.03
2018-10-09T10:42:54.590Z,63.43
2018-10-09T10:45:23.336Z,63.37
2018-10-09T10:47:52.148Z,62.80
2018-10-09T10:50:20.903Z,56.60
2018-10-09T10:52:49.788Z,65.97
2018-10-09T10:55:18.656Z,61.93
2018-10-09T10:57:47.452Z,65.10
2018-10-09T11:00:17.206Z,63.87
2018-10-09T11:02:46.104Z,56.93
2018-10-09T11:05:14.950Z,58.50
2018-10-09T11:07:43.763Z,64.07
2018-10-09T11:10:12.573Z,55.00
2018-10-09T11:12:42.088Z,57.03
2018-10-09T11:15:10.920Z,53.83
2018-10-09T11:17:39.647Z,53.67
2018-10-09T11:20:09.491Z,45.93
2018-10-09T11:22:38.241Z,51.40
2018-10-09T11:25:07.077Z,53.10
2018-10-09T11:27:35.789Z,50.47
2018-10-09T11:30:04.774Z,43.73
2018-10-09T11:32:33.592Z,43.33
2018-10-09T11:35:02.360Z,49.13
2018-10-09T11:37:31.094Z,51.30
2018-10-09T11:40:00.141Z,51.07
2018-10-09T11:42:28.973Z,57.90
2018-10-09T11:44:57.736Z,52.50
2018-10-09T11:47:26.782Z,52.63
2018-10-09T11:49:55.523Z,48.07
2018-10-09T11:52:24.288Z,45.20
2018-10-09T11:54:53.046Z,45.57
2018-10-09T11:57:21.820Z,41.73
2018-10-09T11:59:50.985Z,40.30
2018-10-09T12:02:19.884Z,37.73
2018-10-09T12:04:48.632Z,37.80
2018-10-09T12:07:17.408Z,36.33
2018-10-09T12:09:46.168Z,40.83
2018-10-09T12:12:14.944Z,40.23
2018-10-09T12:14:43.689Z,42.90
2018-10-09T12:17:12.476Z,45.93
2018-10-09T12:19:41.330Z,40.17
2018-10-09T12:22:10.157Z,35.00
2018-10-09T12:24:38.912Z,42.30
2018-10-09T12:27:07.777Z,40.77
2018-10-09T12:29:36.512Z,39.80
2018-10-09T12:32:05.364Z,42.10
2018-10-09T12:34:34.134Z,37.03
2018-10-09T12:37:02.884Z,42.57
2018-10-09T12:39:31.689Z,44.87
2018-10-09T12:42:00.493Z,40.13
2018-10-09T12:44:29.284Z,42.40
2018-10-09T12:46:58.064Z,42.93
2018-10-09T12:49:26.814Z,41.77
2018-10-09T12:51:55.582Z,43.03
2018-10-09T12:54:24.345Z,45.10
2018-10-09T12:56:53.155Z,44.40
2018-10-09T12:59:21.858Z,43.20
2018-10-09T13:01:50.923Z,44.23
2018-10-09T13:04:20.526Z,38.43
2018-10-09T13:06:49.332Z,40.40
2018-10-09T13:09:18.155Z,40.87
2018-10-09T13:11:46.929Z,36.50
2018-10-09T13:14:15.697Z,43.40
2018-10-09T13:16:44.452Z,43.57
2018-10-09T13:19:13.226Z,41.77
2018-10-09T13:21:42.352Z,43.17
2018-10-09T13:24:11.041Z,41.50
2018-10-09T13:26:39.852Z,47.90
2018-10-09T13:29:08.561Z,38.30
2018-10-09T13:31:37.377Z,45.07
2018-10-09T13:34:06.241Z,41.70
2018-10-09T13:36:35.085Z,50.10
2018-10-09T13:39:05.352Z,40.37
2018-10-09T13:41:34.202Z,40.37
2018-10-09T13:44:03.247Z,42.30
2018-10-09T13:46:32.227Z,39.57
2018-10-09T13:49:01.196Z,39.73
2018-10-09T13:51:30.003Z,50.50
2018-10-09T13:53:58.778Z,42.00
2018-10-09T13:56:27.827Z,47.03
2018-10-09T13:58:56.610Z,46.67
2018-10-09T14:01:25.428Z,47.27
2018-10-09T14:03:54.553Z,45.80
2018-10-09T14:06:23.325Z,44.07
2018-10-09T14:08:52.464Z,50.70
2018-10-09T14:11:21.582Z,46.23
2018-10-09T14:13:50.341Z,52.00
2018-10-09T14:16:19.151Z,45.73
2018-10-09T14:18:47.913Z,48.50
2018-10-09T14:21:16.717Z,44.10
2018-10-09T14:23:45.751Z,46.80
2018-10-09T14:26:14.517Z,47.30
2018-10-09T14:28:43.277Z,53.10
2018-10-09T14:31:12.036Z,51.20
2018-10-09T14:33:40.776Z,51.07
2018-10-09T14:36:09.546Z,46.77
2018-10-09T14:38:38.378Z,55.47
2018-10-09T14:41:07.206Z,50.40
2018-10-09T14:43:35.965Z,46.70
2018-10-09T14:46:04.764Z,51.67
2018-10-09T14:48:33.599Z,57.93
2018-10-09T14:51:02.325Z,54.83
2018-10-09T14:53:31.418Z,58.63
2018-10-09T14:56:00.483Z,51.07
2018-10-09T14:58:29.397Z,61.77
2018-10-09T15:00:58.132Z,67.13
2018-10-09T15:03:26.949Z,58.77
2018-10-09T15:05:55.658Z,57.63
2018-10-09T15:08:24.424Z,58.63
2018-10-09T15:10:53.170Z,59.03
2018-10-09T15:13:21.994Z,60.60
2018-10-09T15:15:50.752Z,61.93
2018-10-09T15:18:19.569Z,60.87
2018-10-09T15:20:48.313Z,60.77
2018-10-09T15:23:17.165Z,77.13
2018-10-09T15:25:45.925Z,59.10
2018-10-09T15:28:15.152Z,62.03
2018-10-09T15:30:43.946Z,73.43
2018-10-09T15:33:12.684Z,62.93
2018-10-09T15:35:41.516Z,60.93
2018-10-09T15:38:10.307Z,63.40
2018-10-09T15:40:39.075Z,66.90
2018-10-09T15:43:07.933Z,62.67
2018-10-09T15:45:36.664Z,63.90
2018-10-09T15:48:05.503Z,62.27
2018-10-09T15:50:34.432Z,63.10
2018-10-09T15:53:03.340Z,64.83
2018-10-09T15:55:32.472Z,61.57
2018-10-09T15:58:01.276Z,68.27
2018-10-09T16:00:34.197Z,67.20
2018-10-09T16:03:02.995Z,71.10
2018-10-09T16:05:31.849Z,73.03
2018-10-09T16:08:00.575Z,67.60
2018-10-09T16:10:29.406Z,72.43
2018-10-09T16:12:58.137Z,66.70
2018-10-09T16:15:27.133Z,66.70
2018-10-09T16:17:55.876Z,71.23
2018-10-09T16:20:24.632Z,68.80
2018-10-09T16:22:53.471Z,73.00
2018-10-09T16:25:22.328Z,73.80
2018-10-09T16:27:51.114Z,72.43
2018-10-09T16:30:19.854Z,68.60
2018-10-09T16:32:48.734Z,79.47
2018-10-09T16:35:17.322Z,71.33
2018-10-09T16:37:46.256Z,63.10
2018-10-09T16:40:15.097Z,72.80
2018-10-09T16:42:43.896Z,74.73
2018-10-09T16:45:12.760Z,72.37
2018-10-09T16:47:41.480Z,67.50
2018-10-09T16:50:10.193Z,67.93
2018-10-09T16:52:38.952Z,71.13
2018-10-09T16:55:07.749Z,84.83
2018-10-09T16:57:36.526Z,77.43
2018-10-09T17:00:05.385Z,76.30
2018-10-09T17:02:34.182Z,80.13
2018-10-09T17:05:02.978Z,73.90
2018-10-09T17:07:31.724Z,71.50
2018-10-09T17:10:00.473Z,80.07
2018-10-09T17:12:29.282Z,67.83
2018-10-09T17:14:58.028Z,76.17
2018-10-09T17:17:26.853Z,71.70
2018-10-09T17:19:55.665Z,71.50
2018-10-09T17:22:24.549Z,74.33
2018-10-09T17:24:53.564Z,68.97
2018-10-09T17:27:22.372Z,77.30
2018-10-09T17:29:51.186Z,77.63
2018-10-09T17:32:19.966Z,79.60
2018-10-09T17:34:48.682Z,75.90
2018-10-09T17:37:17.469Z,84.63
2018-10-09T17:39:46.216Z,77.20
2018-10-09T17:42:15.041Z,71.67
2018-10-09T17:44:43.804Z,76.07
2018-10-09T17:47:12.606Z,75.67
2018-10-09T17:49:41.550Z,73.53
2018-10-09T17:52:10.983Z,74.97
2018-10-09T17:54:39.784Z,77.00
2018-10-09T17:57:08.620Z,72.73
2018-10-09T17:59:37.385Z,70.07
2018-10-09T18:02:06.239Z,74.63
2018-10-09T18:04:35.050Z,75.33
2018-10-09T18:07:03.809Z,68.80
2018-10-09T18:09:32.557Z,68.17
2018-10-09T18:12:01.548Z,70.67
2018-10-09T18:14:30.360Z,77.97
2018-10-09T18:16:59.192Z,74.53
2018-10-09T18:19:28.149Z,74.53
2018-10-09T18:21:56.932Z,75.27
2018-10-09T18:24:25.672Z,84.83
2018-10-09T18:26:54.555Z,73.33
2018-10-09T18:29:23.293Z,71.77
2018-10-09T18:31:52.043Z,77.50
2018-10-09T18:34:20.865Z,81.70
2018-10-09T18:36:49.662Z,74.40
2018-10-09T18:39:18.431Z,73.17
2018-10-09T18:41:47.599Z,74.50
2018-10-09T18:44:16.410Z,76.80
2018-10-09T18:46:45.190Z,84.03
2018-10-09T18:49:13.952Z,79.60
2018-10-09T18:51:42.872Z,79.70
2018-10-09T18:54:11.712Z,76.80
2018-10-09T18:56:40.433Z,76.83
2018-10-09T18:59:09.164Z,74.60
2018-10-09T19:01:37.909Z,79.63
2018-10-09T19:04:06.893Z,94.47
2018-10-09T19:06:35.749Z,86.50
2018-10-09T19:09:07.281Z,96.90
2018-10-09T19:11:36.280Z,88.73
2018-10-09T19:14:05.064Z,83.83
2018-10-09T19:16:33.865Z,87.03
2018-10-09T19:19:02.926Z,76.80
2018-10-09T19:21:31.650Z,90.57
2018-10-09T19:24:00.449Z,96.13
2018-10-09T19:26:29.257Z,94.63
2018-10-09T19:28:58.008Z,80.07
2018-10-09T19:31:26.760Z,96.23
2018-10-09T19:33:55.586Z,87.57
2018-10-09T19:36:24.356Z,93.17
2018-10-09T19:38:53.192Z,97.80
2018-10-09T19:41:21.937Z,96.43
2018-10-09T19:43:51.402Z,93.17
2018-10-09T19:46:20.165Z,91.87
2018-10-09T19:48:48.924Z,95.40
2018-10-09T19:51:17.833Z,90.83
2018-10-09T19:53:46.608Z,87.23
2018-10-09T19:56:15.375Z,99.83
2018-10-09T19:58:44.144Z,91.93
2018-10-09T20:01:13.334Z,95.57
2018-10-09T20:03:42.048Z,94.87
2018-10-09T20:06:10.814Z,90.47
2018-10-09T20:08:39.624Z,94.53
2018-10-09T20:11:08.441Z,92.87
2018-10-09T20:13:37.164Z,89.17
2018-10-09T20:16:06.065Z,90.87
2018-10-09T20:18:34.873Z,94.40
2018-10-09T20:21:03.651Z,93.87
2018-10-09T20:23:32.440Z,97.50
2018-10-09T20:26:01.264Z,102.03
2018-10-09T20:28:30.013Z,87.77
2018-10-09T20:30:59.056Z,97.20
2018-10-09T20:33:27.911Z,86.47
2018-10-09T20:35:56.883Z,102.10
2018-10-09T20:38:25.752Z,95.57
2018-10-09T20:40:54.544Z,94.93
2018-10-09T20:43:23.402Z,91.17
2018-10-09T20:45:52.124Z,88.73
2018-10-09T20:48:20.921Z,89.00
2018-10-09T20:50:49.652Z,94.13
2018-10-09T20:53:18.405Z,85.03
2018-10-09T20:55:47.132Z,92.90
2018-10-09T20:58:15.916Z,89.10
2018-10-09T21:00:44.684Z,95.83
2018-10-09T21:03:13.433Z,84.87
2018-10-09T21:05:42.300Z,97.17
2018-10-09T21:08:10.999Z,87.33
2018-10-09T21:10:39.741Z,98.47
2018-10-09T21:13:08.560Z,88.67
2018-10-09T21:15:37.349Z,90.17
2018-10-09T21:18:06.492Z,92.27
2018-10-09T21:20:35.293Z,99.00
2018-10-09T21:23:04.024Z,101.47
2018-10-09T21:25:32.825Z,92.87
2018-10-09T21:28:01.813Z,93.70
2018-10-09T21:30:30.573Z,89.53
2018-10-09T21:32:59.565Z,97.20
2018-10-09T21:35:28.508Z,91.40
2018-10-09T21:37:57.354Z,99.90
2018-10-09T21:40:26.133Z,97.40
2018-10-09T21:42:54.841Z,104.30
2018-10-09T21:45:23.719Z,105.57
2018-10-09T21:47:58.332Z,101.00
2018-10-09T21:50:27.973Z,103.47
2018-10-09T21:52:57.012Z,102.93
2018-10-09T21:55:26.065Z,108.77
2018-10-09T21:57:55.323Z,101.90
2018-10-09T22:00:24.187Z,102.90
2018-10-09T22:02:52.968Z,111.37
2018-10-09T22:05:21.799Z,106.87
2018-10-09T22:07:50.794Z,110.33
2018-10-09T22:10:19.929Z,99.27
2018-10-09T22:12:48.693Z,119.60
2018-10-09T22:15:17.415Z,117.43
2018-10-09T22:17:46.197Z,107.83
2018-10-09T22:20:14.940Z,108.03
2018-10-09T22:22:43.681Z,109.67
2018-10-09T22:25:12.490Z,102.93
2018-10-09T22:27:41.235Z,103.97
2018-10-09T22:30:10.048Z,99.03
2018-10-09T22:32:38.800Z,102.23
2018-10-09T22:35:07.580Z,105.20
2018-10-09T22:37:36.304Z,91.37
2018-10-09T22:40:05.143Z,94.50
2018-10-09T22:42:33.865Z,93.90
2018-10-09T22:45:02.953Z,92.40
2018-10-09T22:47:31.705Z,94.67
2018-10-09T22:50:00.475Z,91.83
2018-10-09T22:52:29.229Z,88.90
2018-10-09T22:54:57.973Z,87.90
2018-10-09T22:57:26.745Z,90.33
2018-10-09T22:59:55.474Z,86.97
2018-10-09T23:02:24.197Z,98.40
2018-10-09T23:04:52.936Z,85.97
2018-10-09T23:07:21.686Z,93.90
2018-10-09T23:09:50.521Z,94.53
2018-10-09T23:12:19.253Z,92.10
2018-10-09T23:14:47.992Z,104.43
2018-10-09T23:17:16.741Z,96.77
2018-10-09T23:19:45.477Z,96.70
2018-10-09T23:22:14.194Z,97.83
2018-10-09T23:24:42.968Z,104.97
2018-10-09T23:27:11.781Z,100.13
2018-10-09T23:29:40.536Z,107.20
2018-10-09T23:32:09.321Z,100.47
2018-10-09T23:34:38.106Z,106.17
2018-10-09T23:37:06.892Z,101.10
2018-10-09T23:39:35.564Z,100.23
2018-10-09T23:42:04.514Z,102.40
2018-10-09T23:44:33.338Z,97.27
2018-10-09T23:47:02.111Z,95.70
2018-10-09T23:49:30.843Z,96.50
2018-10-09T23:51:59.603Z,94.27
2018-10-09T23:54:28.332Z,93.90
2018-10-09T23:56:57.191Z,99.70
2018-10-09T23:59:26.183Z,86.33
